createdAt,value
2017-12-11T00:00:08.883Z,93.34
2017-12-11T00:01:39.888Z,93.15
2017-12-11T00:03:06.865Z,93.15
2017-12-11T00:04:34.058Z,93.14
2017-12-11T00:06:01.253Z,93.33
2017-12-11T00:07:24.468Z,93.23
2017-12-11T00:08:55.615Z,93.04
2017-12-11T00:10:18.738Z,93.22
2017-12-11T00:11:46.005Z,93.08
2017-12-11T00:13:17.159Z,93.15
2017-12-11T00:14:44.363Z,92.97
2017-12-11T00:16:11.376Z,93.56
2017-12-11T00:17:38.380Z,93.45
2017-12-11T00:19:01.205Z,93.55
2017-12-11T00:20:32.437Z,93.37
2017-12-11T00:21:55.619Z,93.29
2017-12-11T00:23:22.696Z,93.53
2017-12-11T00:24:53.856Z,93.34
2017-12-11T00:26:21.018Z,93.13
2017-12-11T00:27:44.204Z,93.64
2017-12-11T00:29:15.386Z,93.73
2017-12-11T00:30:42.455Z,94.03
2017-12-11T00:32:05.556Z,94.24
2017-12-11T00:33:36.492Z,94.42
2017-12-11T00:35:03.518Z,94.39
2017-12-11T00:36:30.654Z,94.34
2017-12-11T00:37:57.824Z,94.71
2017-12-11T00:39:20.878Z,94.75
2017-12-11T00:40:51.919Z,94.72
2017-12-11T00:42:15.041Z,94.48
2017-12-11T00:43:42.077Z,94.50
2017-12-11T00:45:09.080Z,94.95
2017-12-11T00:46:40.034Z,94.66
2017-12-11T00:48:03.185Z,94.83
2017-12-11T00:49:33.925Z,94.70
2017-12-11T00:51:00.910Z,94.55
2017-12-11T00:52:27.993Z,94.60
2017-12-11T00:53:55.210Z,94.64
2017-12-11T00:55:18.295Z,94.88
2017-12-11T00:56:49.516Z,95.02
2017-12-11T00:58:16.600Z,95.14
2017-12-11T00:59:43.677Z,95.09
2017-12-11T01:01:10.634Z,94.97
2017-12-11T01:02:37.800Z,94.94
2017-12-11T01:04:04.822Z,94.79
2017-12-11T01:05:27.885Z,94.72
2017-12-11T01:06:55.171Z,94.53
2017-12-11T01:08:26.111Z,94.60
2017-12-11T01:09:53.229Z,94.60
2017-12-11T01:11:20.264Z,94.45
2017-12-11T01:12:43.342Z,94.31
2017-12-11T01:14:10.557Z,94.00
2017-12-11T01:15:37.759Z,93.86
2017-12-11T01:17:08.807Z,93.96
2017-12-11T01:18:35.903Z,93.96
2017-12-11T01:20:03.003Z,94.10
2017-12-11T01:21:26.117Z,94.06
2017-12-11T01:22:57.110Z,94.13
2017-12-11T01:24:20.473Z,94.31
2017-12-11T01:25:47.552Z,94.12
2017-12-11T01:27:18.667Z,94.09
2017-12-11T01:28:46.008Z,94.06
2017-12-11T01:30:13.052Z,94.33
2017-12-11T01:31:40.155Z,94.36
2017-12-11T01:33:07.172Z,94.22
2017-12-11T01:34:34.140Z,93.68
2017-12-11T01:36:01.219Z,93.82
2017-12-11T01:37:28.481Z,93.75
2017-12-11T01:38:55.416Z,93.99
2017-12-11T01:40:22.730Z,93.83
2017-12-11T01:41:50.092Z,93.70
2017-12-11T01:43:13.180Z,93.60
2017-12-11T01:44:44.376Z,93.80
2017-12-11T01:46:11.461Z,93.66
2017-12-11T01:47:34.553Z,93.59
2017-12-11T01:49:05.700Z,93.58
2017-12-11T01:50:32.821Z,93.58
2017-12-11T01:51:56.015Z,93.45
2017-12-11T01:53:23.255Z,93.78
2017-12-11T01:54:50.529Z,93.92
2017-12-11T01:56:21.719Z,93.67
2017-12-11T01:57:48.868Z,93.63
2017-12-11T01:59:16.015Z,93.77
2017-12-11T02:00:39.264Z,94.06
2017-12-11T02:02:06.353Z,94.08
2017-12-11T02:03:37.368Z,94.02
2017-12-11T02:05:00.524Z,94.22
2017-12-11T02:06:28.152Z,94.30
2017-12-11T02:07:55.321Z,94.25
2017-12-11T02:09:22.563Z,94.16
2017-12-11T02:10:53.747Z,94.24
2017-12-11T02:12:16.723Z,94.11
2017-12-11T02:13:47.898Z,94.36
2017-12-11T02:15:15.055Z,94.55
2017-12-11T02:16:38.039Z,94.37
2017-12-11T02:18:09.141Z,94.15
2017-12-11T02:19:32.296Z,94.17
2017-12-11T02:21:03.424Z,93.92
2017-12-11T02:22:30.475Z,94.09
2017-12-11T02:23:57.520Z,94.01
2017-12-11T02:25:20.684Z,94.04
2017-12-11T02:26:51.978Z,94.27
2017-12-11T02:28:15.142Z,94.48
2017-12-11T02:29:42.159Z,94.60
2017-12-11T02:31:09.260Z,94.50
2017-12-11T02:32:36.261Z,94.60
2017-12-11T02:34:07.436Z,94.78
2017-12-11T02:35:34.399Z,94.89
2017-12-11T02:36:57.521Z,94.95
2017-12-11T02:38:28.749Z,94.72
2017-12-11T02:39:55.765Z,94.74
2017-12-11T02:41:23.004Z,94.65
2017-12-11T02:42:50.039Z,94.49
2017-12-11T02:44:13.263Z,94.57
2017-12-11T02:45:40.210Z,94.58
2017-12-11T02:47:11.418Z,94.57
2017-12-11T02:48:38.514Z,94.60
2017-12-11T02:50:05.491Z,94.85
2017-12-11T02:51:28.744Z,95.06
2017-12-11T02:52:56.076Z,95.20
2017-12-11T02:54:27.342Z,95.01
2017-12-11T02:55:54.412Z,94.98
2017-12-11T02:57:21.569Z,94.93
2017-12-11T02:58:44.742Z,94.95
2017-12-11T03:00:15.776Z,94.95
2017-12-11T03:01:38.783Z,94.94
2017-12-11T03:03:05.813Z,94.98
2017-12-11T03:04:36.918Z,94.90
2017-12-11T03:06:04.172Z,94.83
2017-12-11T03:07:26.981Z,94.96
2017-12-11T03:08:54.290Z,95.00
2017-12-11T03:10:25.573Z,95.09
2017-12-11T03:11:48.982Z,95.20
2017-12-11T03:13:16.015Z,95.29
2017-12-11T03:14:43.033Z,95.49
2017-12-11T03:16:10.029Z,95.64
2017-12-11T03:17:37.075Z,95.91
2017-12-11T03:19:04.207Z,96.08
2017-12-11T03:20:31.295Z,96.04
2017-12-11T03:22:02.549Z,96.02
2017-12-11T03:23:25.609Z,95.95
2017-12-11T03:24:56.787Z,96.05
2017-12-11T03:26:19.943Z,95.93
2017-12-11T03:27:47.133Z,95.92
2017-12-11T03:29:14.122Z,96.07
2017-12-11T03:30:45.104Z,96.06
2017-12-11T03:32:08.148Z,96.05
2017-12-11T03:33:35.180Z,96.12
2017-12-11T03:35:06.336Z,96.03
2017-12-11T03:36:33.524Z,96.12
2017-12-11T03:37:56.633Z,96.08
2017-12-11T03:39:27.928Z,95.95
2017-12-11T03:40:51.013Z,95.77
2017-12-11T03:42:18.249Z,95.75
2017-12-11T03:43:45.546Z,95.57
2017-12-11T03:45:16.587Z,95.64
2017-12-11T03:46:43.603Z,95.66
2017-12-11T03:48:10.806Z,95.95
2017-12-11T03:49:37.937Z,95.81
2017-12-11T03:51:00.939Z,95.70
2017-12-11T03:52:28.271Z,95.84
2017-12-11T03:53:59.575Z,95.85
2017-12-11T03:55:22.657Z,95.89
2017-12-11T03:56:49.887Z,95.81
2017-12-11T03:58:16.972Z,95.97
2017-12-11T03:59:48.065Z,95.85
2017-12-11T04:01:15.268Z,95.85
2017-12-11T04:02:38.367Z,96.02
2017-12-11T04:04:05.364Z,96.35
2017-12-11T04:05:32.460Z,96.29
2017-12-11T04:06:59.877Z,95.80
2017-12-11T04:08:27.015Z,95.52
2017-12-11T04:09:54.265Z,95.06
2017-12-11T04:11:21.571Z,94.97
2017-12-11T04:12:52.846Z,95.29
2017-12-11T04:14:20.161Z,94.66
2017-12-11T04:15:43.358Z,94.47
2017-12-11T04:17:14.534Z,94.56
2017-12-11T04:18:41.724Z,94.71
2017-12-11T04:20:08.890Z,94.63
2017-12-11T04:21:35.991Z,94.67
2017-12-11T04:23:03.257Z,94.91
2017-12-11T04:24:30.462Z,95.00
2017-12-11T04:25:53.562Z,95.07
2017-12-11T04:27:24.693Z,94.86
2017-12-11T04:28:47.816Z,94.80
2017-12-11T04:30:19.133Z,94.83
2017-12-11T04:31:42.301Z,94.89
2017-12-11T04:33:09.634Z,94.67
2017-12-11T04:34:36.746Z,94.84
2017-12-11T04:36:07.768Z,94.93
2017-12-11T04:37:30.880Z,94.92
2017-12-11T04:39:06.187Z,94.94
2017-12-11T04:40:29.304Z,94.88
2017-12-11T04:41:56.469Z,94.91
2017-12-11T04:43:19.742Z,94.87
2017-12-11T04:44:50.910Z,94.79
2017-12-11T04:46:17.983Z,94.63
2017-12-11T04:47:45.206Z,94.66
2017-12-11T04:49:08.564Z,94.52
2017-12-11T04:50:39.637Z,94.27
2017-12-11T04:52:02.889Z,94.21
2017-12-11T04:53:30.001Z,94.17
2017-12-11T04:55:01.252Z,93.97
2017-12-11T04:56:28.512Z,93.93
2017-12-11T04:57:51.598Z,94.04
2017-12-11T04:59:18.798Z,93.89
2017-12-11T05:00:50.202Z,93.88
2017-12-11T05:02:17.435Z,93.92
2017-12-11T05:03:44.590Z,93.93
2017-12-11T05:05:07.748Z,93.86
2017-12-11T05:06:34.721Z,93.97
2017-12-11T05:08:05.842Z,93.97
2017-12-11T05:09:32.951Z,94.00
2017-12-11T05:10:56.119Z,93.75
2017-12-11T05:12:23.278Z,93.64
2017-12-11T05:13:50.544Z,93.86
2017-12-11T05:15:17.790Z,94.03
2017-12-11T05:16:49.073Z,93.85
2017-12-11T05:18:16.081Z,94.10
2017-12-11T05:19:39.011Z,94.08
2017-12-11T05:21:06.242Z,93.53
2017-12-11T05:22:37.518Z,93.08
2017-12-11T05:24:00.650Z,92.69
2017-12-11T05:25:28.006Z,92.84
2017-12-11T05:26:59.304Z,92.87
2017-12-11T05:28:26.426Z,92.79
2017-12-11T05:29:49.627Z,92.66
2017-12-11T05:31:20.827Z,92.60
2017-12-11T05:32:47.885Z,92.40
2017-12-11T05:34:11.253Z,92.48
2017-12-11T05:35:42.148Z,92.75
2017-12-11T05:37:09.340Z,93.01
2017-12-11T05:38:36.250Z,93.13
2017-12-11T05:40:03.718Z,92.85
2017-12-11T05:41:30.832Z,92.90
2017-12-11T05:42:58.085Z,92.93
2017-12-11T05:44:25.402Z,93.17
2017-12-11T05:45:48.719Z,93.18
2017-12-11T05:47:15.886Z,93.19
2017-12-11T05:48:47.079Z,93.00
2017-12-11T05:50:10.375Z,92.37
2017-12-11T05:51:41.525Z,92.54
2017-12-11T05:53:08.757Z,92.48
2017-12-11T05:54:35.815Z,92.47
2017-12-11T05:55:59.015Z,92.64
2017-12-11T05:57:30.198Z,92.47
2017-12-11T05:58:53.456Z,92.66
2017-12-11T06:00:24.843Z,92.72
2017-12-11T06:01:47.918Z,92.50
2017-12-11T06:03:15.093Z,92.48
2017-12-11T06:04:42.219Z,92.13
2017-12-11T06:06:09.585Z,92.31
2017-12-11T06:07:40.918Z,92.16
2017-12-11T06:09:03.969Z,91.92
2017-12-11T06:10:31.040Z,91.56
2017-12-11T06:11:57.929Z,91.74
2017-12-11T06:13:29.038Z,92.15
2017-12-11T06:14:56.274Z,92.17
2017-12-11T06:16:19.410Z,92.25
2017-12-11T06:17:50.736Z,91.88
2017-12-11T06:19:17.806Z,92.16
2017-12-11T06:20:41.114Z,92.27
2017-12-11T06:22:12.332Z,92.36
2017-12-11T06:23:35.439Z,92.36
2017-12-11T06:25:02.558Z,92.61
2017-12-11T06:26:33.837Z,92.35
2017-12-11T06:28:00.777Z,92.29
2017-12-11T06:29:24.096Z,92.30
2017-12-11T06:30:51.359Z,92.40
2017-12-11T06:32:18.573Z,92.65
2017-12-11T06:33:45.822Z,92.59
2017-12-11T06:35:16.765Z,92.71
2017-12-11T06:36:40.011Z,92.65
2017-12-11T06:38:07.322Z,93.01
2017-12-11T06:39:34.356Z,92.70
2017-12-11T06:41:01.551Z,93.11
2017-12-11T06:42:32.679Z,92.54
2017-12-11T06:43:55.779Z,92.41
2017-12-11T06:45:23.063Z,92.17
2017-12-11T06:46:50.431Z,92.33
2017-12-11T06:48:21.592Z,92.39
2017-12-11T06:49:48.773Z,92.13
2017-12-11T06:51:15.890Z,91.84
2017-12-11T06:52:43.256Z,91.63
2017-12-11T06:54:06.435Z,91.36
2017-12-11T06:55:37.601Z,90.89
2017-12-11T06:57:04.641Z,90.94
2017-12-11T06:58:27.836Z,91.16
2017-12-11T06:59:55.002Z,91.19
2017-12-11T07:01:22.225Z,91.29
2017-12-11T07:02:53.396Z,91.29
2017-12-11T07:04:20.582Z,91.38
2017-12-11T07:05:43.719Z,91.66
2017-12-11T07:07:14.835Z,91.77
2017-12-11T07:08:37.928Z,91.96
2017-12-11T07:10:05.004Z,91.92
2017-12-11T07:11:31.954Z,92.26
2017-12-11T07:13:03.244Z,92.35
2017-12-11T07:14:30.379Z,92.47
2017-12-11T07:15:57.453Z,92.71
2017-12-11T07:17:20.761Z,92.67
2017-12-11T07:18:51.979Z,92.93
2017-12-11T07:20:15.339Z,93.10
2017-12-11T07:21:46.381Z,92.70
2017-12-11T07:23:09.438Z,92.69
2017-12-11T07:24:36.856Z,92.80
2017-12-11T07:26:03.767Z,92.71
2017-12-11T07:27:30.775Z,92.43
2017-12-11T07:29:01.910Z,92.23
2017-12-11T07:30:29.078Z,92.06
2017-12-11T07:31:52.328Z,91.72
2017-12-11T07:33:23.593Z,91.01
2017-12-11T07:34:46.870Z,91.57
2017-12-11T07:36:14.048Z,91.56
2017-12-11T07:37:45.233Z,91.91
2017-12-11T07:39:12.379Z,92.20
2017-12-11T07:40:35.612Z,92.48
2017-12-11T07:42:06.902Z,92.42
2017-12-11T07:43:34.095Z,92.36
2017-12-11T07:44:57.200Z,92.37
2017-12-11T07:46:24.435Z,92.41
2017-12-11T07:47:51.527Z,92.46
2017-12-11T07:49:22.568Z,92.66
2017-12-11T07:50:49.899Z,92.47
2017-12-11T07:52:13.201Z,91.92
2017-12-11T07:53:40.530Z,91.43
2017-12-11T07:55:11.738Z,91.20
2017-12-11T07:56:34.938Z,90.98
2017-12-11T07:58:01.893Z,90.65
2017-12-11T07:59:29.235Z,90.56
2017-12-11T08:00:56.468Z,90.39
2017-12-11T08:02:27.859Z,90.39
2017-12-11T08:03:50.952Z,90.36
2017-12-11T08:05:22.322Z,90.21
2017-12-11T08:06:45.482Z,90.01
2017-12-11T08:08:16.888Z,89.96
2017-12-11T08:09:39.972Z,89.93
2017-12-11T08:11:07.018Z,89.59
2017-12-11T08:12:34.246Z,89.78
2017-12-11T08:14:05.350Z,89.56
2017-12-11T08:15:32.601Z,89.67
2017-12-11T08:16:59.877Z,89.75
2017-12-11T08:18:27.155Z,89.83
2017-12-11T08:19:50.362Z,89.77
2017-12-11T08:21:21.429Z,89.94
2017-12-11T08:22:44.662Z,89.90
2017-12-11T08:24:15.848Z,89.79
2017-12-11T08:25:39.064Z,89.73
2017-12-11T08:27:06.187Z,89.67
2017-12-11T08:28:33.243Z,89.70
2017-12-11T08:30:00.074Z,89.45
2017-12-11T08:31:27.221Z,89.42
2017-12-11T08:32:54.539Z,89.25
2017-12-11T08:34:21.683Z,89.45
2017-12-11T08:35:48.863Z,89.20
2017-12-11T08:37:16.039Z,89.06
2017-12-11T08:38:43.140Z,89.23
2017-12-11T08:40:14.451Z,89.12
2017-12-11T08:41:41.673Z,89.09
2017-12-11T08:43:08.813Z,89.06
2017-12-11T08:44:35.972Z,89.10
2017-12-11T08:45:59.298Z,89.08
2017-12-11T08:47:30.319Z,88.72
2017-12-11T08:48:57.750Z,88.50
2017-12-11T08:50:20.831Z,88.47
2017-12-11T08:51:52.203Z,88.31
2017-12-11T08:53:15.127Z,88.19
2017-12-11T08:54:46.465Z,87.99
2017-12-11T08:56:09.780Z,88.09
2017-12-11T08:57:36.969Z,88.00
2017-12-11T08:59:04.217Z,87.75
2017-12-11T09:00:31.281Z,87.82
2017-12-11T09:01:58.437Z,88.05
2017-12-11T09:03:25.622Z,88.13
2017-12-11T09:04:56.930Z,87.97
2017-12-11T09:06:24.373Z,87.93
2017-12-11T09:07:47.577Z,88.04
2017-12-11T09:09:18.767Z,87.93
2017-12-11T09:10:46.011Z,87.87
2017-12-11T09:12:09.182Z,87.83
2017-12-11T09:13:40.362Z,87.80
2017-12-11T09:15:03.671Z,87.91
2017-12-11T09:16:30.615Z,87.83
2017-12-11T09:18:01.806Z,87.69
2017-12-11T09:19:28.896Z,87.72
2017-12-11T09:20:52.219Z,87.64
2017-12-11T09:22:19.537Z,87.81
2017-12-11T09:23:46.860Z,87.75
2017-12-11T09:25:18.113Z,87.58
2017-12-11T09:26:41.319Z,87.60
2017-12-11T09:28:08.657Z,87.44
2017-12-11T09:29:39.535Z,87.34
2017-12-11T09:31:06.593Z,87.38
2017-12-11T09:32:33.750Z,87.15
2017-12-11T09:33:56.979Z,87.38
2017-12-11T09:35:28.077Z,87.22
2017-12-11T09:36:55.371Z,88.05
2017-12-11T09:38:18.536Z,88.28
2017-12-11T09:39:45.887Z,88.90
2017-12-11T09:41:13.086Z,88.75
2017-12-11T09:42:40.355Z,89.26
2017-12-11T09:44:07.485Z,89.39
2017-12-11T09:45:38.702Z,89.46
2017-12-11T09:47:01.856Z,89.39
2017-12-11T09:48:29.160Z,89.30
2017-12-11T09:49:56.406Z,89.26
2017-12-11T09:51:23.701Z,89.55
2017-12-11T09:52:50.850Z,89.32
2017-12-11T09:54:21.945Z,89.12
2017-12-11T09:55:45.076Z,88.85
2017-12-11T09:57:12.036Z,88.44
2017-12-11T09:58:39.112Z,88.77
2017-12-11T10:00:06.131Z,88.63
2017-12-11T10:01:33.343Z,88.80
2017-12-11T10:03:04.516Z,89.20
2017-12-11T10:04:31.872Z,89.41
2017-12-11T10:05:59.202Z,89.06
2017-12-11T10:07:22.538Z,89.02
2017-12-11T10:08:49.825Z,88.65
2017-12-11T10:10:16.849Z,88.46
2017-12-11T10:11:44.083Z,88.27
2017-12-11T10:13:11.347Z,87.94
2017-12-11T10:14:42.503Z,87.83
2017-12-11T10:16:05.780Z,87.73
2017-12-11T10:17:36.914Z,87.56
2017-12-11T10:19:04.389Z,87.54
2017-12-11T10:20:27.665Z,87.34
2017-12-11T10:21:54.958Z,87.43
2017-12-11T10:23:26.031Z,87.59
2017-12-11T10:24:49.353Z,87.36
2017-12-11T10:26:20.561Z,87.44
2017-12-11T10:27:43.781Z,87.45
2017-12-11T10:29:11.087Z,88.16
2017-12-11T10:30:38.143Z,88.51
2017-12-11T10:32:09.172Z,88.18
2017-12-11T10:33:32.265Z,87.92
2017-12-11T10:35:03.467Z,87.89
2017-12-11T10:36:26.534Z,88.01
2017-12-11T10:37:57.868Z,88.14
2017-12-11T10:39:24.933Z,88.46
2017-12-11T10:40:52.236Z,88.75
2017-12-11T10:42:19.507Z,88.54
2017-12-11T10:43:42.571Z,88.00
2017-12-11T10:45:13.902Z,87.83
2017-12-11T10:46:37.204Z,87.79
2017-12-11T10:48:04.253Z,87.62
2017-12-11T10:49:35.330Z,87.43
2017-12-11T10:51:02.604Z,87.67
2017-12-11T10:52:26.004Z,87.57
2017-12-11T10:53:53.062Z,87.68
2017-12-11T10:55:20.093Z,87.63
2017-12-11T10:56:51.443Z,87.99
2017-12-11T10:58:18.687Z,87.84
2017-12-11T10:59:42.009Z,88.00
2017-12-11T11:01:09.271Z,88.02
2017-12-11T11:02:36.307Z,87.82
2017-12-11T11:04:03.270Z,87.84
2017-12-11T11:05:30.273Z,87.61
2017-12-11T11:06:57.650Z,88.06
2017-12-11T11:08:28.756Z,87.92
2017-12-11T11:09:52.084Z,87.77
2017-12-11T11:11:19.294Z,87.68
2017-12-11T11:12:50.528Z,87.87
2017-12-11T11:14:17.812Z,87.85
2017-12-11T11:15:40.938Z,87.68
2017-12-11T11:17:12.069Z,87.82
2017-12-11T11:18:35.342Z,88.19
2017-12-11T11:20:02.455Z,87.92
2017-12-11T11:21:29.570Z,87.50
2017-12-11T11:23:00.785Z,87.21
2017-12-11T11:24:24.064Z,87.25
2017-12-11T11:25:55.234Z,87.18
2017-12-11T11:27:22.470Z,87.29
2017-12-11T11:28:49.738Z,87.36
2017-12-11T11:30:13.080Z,87.07
2017-12-11T11:31:40.189Z,86.93
2017-12-11T11:33:14.308Z,86.78
2017-12-11T11:34:34.600Z,86.58
2017-12-11T11:36:05.752Z,86.50
2017-12-11T11:37:33.086Z,86.53
2017-12-11T11:38:56.372Z,86.57
2017-12-11T11:40:27.720Z,86.52
2017-12-11T11:41:50.765Z,86.31
2017-12-11T11:43:18.123Z,86.66
2017-12-11T11:44:45.463Z,86.67
2017-12-11T11:46:12.717Z,86.69
2017-12-11T11:47:39.946Z,86.68
2017-12-11T11:49:07.315Z,86.89
2017-12-11T11:50:34.541Z,86.97
2017-12-11T11:52:01.716Z,86.78
2017-12-11T11:53:32.976Z,86.82
2017-12-11T11:55:00.206Z,86.80
2017-12-11T11:56:27.387Z,86.94
2017-12-11T11:57:50.528Z,86.87
2017-12-11T11:59:17.801Z,86.81
2017-12-11T12:00:48.869Z,86.91
2017-12-11T12:02:15.986Z,86.69
2017-12-11T12:03:43.217Z,86.93
2017-12-11T12:05:10.415Z,87.22
2017-12-11T12:06:33.647Z,87.22
2017-12-11T12:08:00.916Z,87.22
2017-12-11T12:09:28.184Z,87.02
2017-12-11T12:10:55.477Z,86.92
2017-12-11T12:12:22.740Z,86.98
2017-12-11T12:13:54.075Z,87.03
2017-12-11T12:15:21.330Z,86.90
2017-12-11T12:16:44.433Z,86.69
2017-12-11T12:18:11.751Z,86.73
2017-12-11T12:19:39.063Z,86.79
2017-12-11T12:21:10.322Z,86.97
2017-12-11T12:22:37.457Z,86.67
2017-12-11T12:24:04.475Z,86.62
2017-12-11T12:25:31.572Z,86.63
2017-12-11T12:26:54.841Z,86.81
2017-12-11T12:28:22.032Z,86.81
2017-12-11T12:29:49.368Z,86.45
2017-12-11T12:31:16.768Z,86.75
2017-12-11T12:32:43.714Z,86.75
2017-12-11T12:34:11.015Z,86.54
2017-12-11T12:35:42.152Z,86.63
2017-12-11T12:37:05.395Z,86.61
2017-12-11T12:38:32.604Z,86.56
2017-12-11T12:39:59.736Z,86.66
2017-12-11T12:41:31.053Z,86.57
2017-12-11T12:42:58.242Z,86.84
2017-12-11T12:44:21.557Z,86.73
2017-12-11T12:45:48.907Z,86.53
2017-12-11T12:47:16.102Z,86.65
2017-12-11T12:48:43.223Z,86.91
2017-12-11T12:50:10.340Z,86.60
2017-12-11T12:51:41.577Z,87.14
2017-12-11T12:53:04.791Z,86.69
2017-12-11T12:54:32.006Z,86.42
2017-12-11T12:55:59.147Z,86.42
2017-12-11T12:57:30.260Z,86.70
2017-12-11T12:58:53.574Z,86.59
2017-12-11T13:00:20.798Z,86.66
2017-12-11T13:01:47.997Z,86.66
2017-12-11T13:03:15.101Z,86.88
2017-12-11T13:04:46.240Z,86.63
2017-12-11T13:06:13.359Z,86.69
2017-12-11T13:07:40.695Z,86.80
2017-12-11T13:09:07.827Z,86.82
2017-12-11T13:10:31.011Z,86.92
2017-12-11T13:11:58.250Z,86.81
2017-12-11T13:13:25.435Z,86.97
2017-12-11T13:14:52.623Z,87.08
2017-12-11T13:16:23.804Z,87.17
2017-12-11T13:17:47.073Z,87.18
2017-12-11T13:19:14.432Z,87.69
2017-12-11T13:20:41.592Z,87.19
2017-12-11T13:22:12.808Z,86.92
2017-12-11T13:23:39.959Z,87.07
2017-12-11T13:25:07.151Z,87.09
2017-12-11T13:26:30.055Z,87.05
2017-12-11T13:27:57.367Z,86.73
2017-12-11T13:29:28.368Z,87.13
2017-12-11T13:30:51.727Z,87.40
2017-12-11T13:32:18.853Z,87.35
2017-12-11T13:33:46.309Z,87.53
2017-12-11T13:35:13.480Z,87.52
2017-12-11T13:36:44.669Z,87.63
2017-12-11T13:38:11.973Z,87.83
2017-12-11T13:39:39.289Z,87.79
2017-12-11T13:41:06.307Z,88.11
2017-12-11T13:42:29.630Z,87.89
2017-12-11T13:43:56.906Z,88.08
2017-12-11T13:45:24.194Z,88.80
2017-12-11T13:46:55.390Z,88.46
2017-12-11T13:48:22.573Z,88.34
2017-12-11T13:49:45.691Z,88.38
2017-12-11T13:51:13.055Z,88.95
2017-12-11T13:52:44.412Z,89.12
2017-12-11T13:54:11.525Z,89.17
2017-12-11T13:55:34.776Z,88.98
2017-12-11T13:57:05.732Z,89.07
2017-12-11T13:58:28.973Z,89.25
2017-12-11T14:00:00.159Z,89.31
2017-12-11T14:01:23.341Z,89.09
2017-12-11T14:02:54.530Z,89.47
2017-12-11T14:04:21.814Z,89.18
2017-12-11T14:05:48.962Z,89.02
2017-12-11T14:07:16.278Z,89.21
2017-12-11T14:08:39.506Z,89.11
2017-12-11T14:10:06.761Z,89.31
2017-12-11T14:11:34.010Z,89.17
2017-12-11T14:13:01.222Z,88.89
2017-12-11T14:14:32.495Z,88.89
2017-12-11T14:15:55.801Z,88.76
2017-12-11T14:17:27.148Z,88.69
2017-12-11T14:18:54.470Z,88.25
2017-12-11T14:20:21.681Z,88.55
2017-12-11T14:21:44.926Z,89.05
2017-12-11T14:23:16.032Z,88.39
2017-12-11T14:24:39.317Z,88.49
2017-12-11T14:26:06.520Z,88.65
2017-12-11T14:27:33.721Z,88.61
2017-12-11T14:29:04.787Z,88.79
2017-12-11T14:30:28.120Z,89.11
2017-12-11T14:31:55.483Z,89.37
2017-12-11T14:33:26.747Z,89.29
2017-12-11T14:34:50.067Z,89.63
2017-12-11T14:36:17.378Z,89.29
2017-12-11T14:37:48.547Z,89.42
2017-12-11T14:39:11.853Z,89.40
2017-12-11T14:40:39.038Z,89.44
2017-12-11T14:42:06.192Z,89.65
2017-12-11T14:43:37.425Z,89.70
2017-12-11T14:45:04.227Z,89.85
2017-12-11T14:46:31.494Z,89.85
2017-12-11T14:47:58.870Z,90.04
2017-12-11T14:49:21.904Z,90.00
2017-12-11T14:50:49.064Z,90.06
2017-12-11T14:52:16.414Z,90.04
2017-12-11T14:53:47.662Z,90.48
2017-12-11T14:55:14.927Z,90.47
2017-12-11T14:56:42.351Z,90.54
2017-12-11T14:58:05.631Z,90.55
2017-12-11T14:59:36.763Z,90.69
2017-12-11T15:01:03.928Z,90.78
2017-12-11T15:02:27.216Z,90.63
2017-12-11T15:03:58.310Z,90.92
2017-12-11T15:05:25.594Z,90.81
2017-12-11T15:06:49.016Z,90.94
2017-12-11T15:08:20.270Z,91.14
2017-12-11T15:09:43.431Z,91.20
2017-12-11T15:11:14.410Z,90.96
2017-12-11T15:12:37.749Z,91.22
2017-12-11T15:14:04.932Z,91.48
2017-12-11T15:15:32.104Z,91.15
2017-12-11T15:16:59.435Z,90.88
2017-12-11T15:18:26.742Z,91.35
2017-12-11T15:19:54.087Z,91.10
2017-12-11T15:21:25.355Z,91.30
2017-12-11T15:22:52.523Z,91.54
2017-12-11T15:24:15.730Z,91.75
2017-12-11T15:25:47.044Z,91.58
2017-12-11T15:27:10.289Z,91.53
2017-12-11T15:28:37.264Z,92.04
2017-12-11T15:30:04.205Z,92.05
2017-12-11T15:31:31.357Z,92.48
2017-12-11T15:32:58.538Z,92.64
2017-12-11T15:34:29.596Z,92.89
2017-12-11T15:35:56.855Z,92.90
2017-12-11T15:37:20.184Z,92.65
2017-12-11T15:38:47.179Z,92.64
2017-12-11T15:40:14.314Z,92.76
2017-12-11T15:41:41.646Z,92.95
2017-12-11T15:43:08.847Z,92.89
2017-12-11T15:44:39.929Z,93.04
2017-12-11T15:46:07.074Z,93.07
2017-12-11T15:47:30.196Z,93.21
2017-12-11T15:48:57.360Z,93.02
2017-12-11T15:50:28.711Z,92.93
2017-12-11T15:51:51.933Z,92.89
2017-12-11T15:53:23.009Z,92.87
2017-12-11T15:54:50.191Z,92.74
2017-12-11T15:56:17.430Z,92.71
2017-12-11T15:57:40.614Z,92.55
2017-12-11T15:59:07.864Z,92.76
2017-12-11T16:00:34.855Z,92.66
2017-12-11T16:02:02.002Z,92.69
2017-12-11T16:03:29.203Z,92.82
2017-12-11T16:05:00.468Z,92.74
2017-12-11T16:06:23.769Z,92.96
2017-12-11T16:07:51.040Z,93.18
2017-12-11T16:09:22.283Z,93.41
2017-12-11T16:10:45.391Z,93.39
2017-12-11T16:12:12.605Z,93.29
2017-12-11T16:13:43.915Z,93.27
2017-12-11T16:15:07.034Z,93.39
2017-12-11T16:16:34.221Z,93.49
2017-12-11T16:18:05.341Z,93.20
2017-12-11T16:19:28.622Z,93.45
2017-12-11T16:20:59.880Z,93.39
2017-12-11T16:22:22.935Z,93.59
2017-12-11T16:23:54.175Z,93.92
2017-12-11T16:25:21.433Z,93.88
2017-12-11T16:26:48.508Z,94.26
2017-12-11T16:28:15.766Z,94.78
2017-12-11T16:29:38.782Z,95.02
2017-12-11T16:31:06.114Z,95.32
2017-12-11T16:32:33.318Z,95.54
2017-12-11T16:34:04.220Z,95.86
2017-12-11T16:35:27.284Z,96.10
2017-12-11T16:36:54.556Z,96.03
2017-12-11T16:38:21.697Z,96.22
2017-12-11T16:39:52.797Z,96.31
2017-12-11T16:41:20.028Z,96.57
2017-12-11T16:42:43.273Z,96.64
2017-12-11T16:44:10.475Z,96.70
2017-12-11T16:45:41.661Z,96.57
2017-12-11T16:47:08.904Z,96.77
2017-12-11T16:48:31.973Z,96.93
2017-12-11T16:49:59.136Z,97.12
2017-12-11T16:51:30.311Z,97.04
2017-12-11T16:52:53.392Z,97.22
2017-12-11T16:54:24.729Z,97.27
2017-12-11T16:55:47.994Z,97.39
2017-12-11T16:57:19.102Z,97.33
2017-12-11T16:58:42.328Z,97.42
2017-12-11T17:00:09.448Z,97.41
2017-12-11T17:01:40.543Z,97.39
2017-12-11T17:03:07.491Z,97.28
2017-12-11T17:04:30.574Z,97.22
2017-12-11T17:05:57.671Z,97.24
2017-12-11T17:07:28.910Z,97.23
2017-12-11T17:08:56.047Z,97.20
2017-12-11T17:10:23.333Z,97.18
2017-12-11T17:11:46.746Z,97.08
2017-12-11T17:13:18.031Z,97.16
2017-12-11T17:14:41.204Z,97.24
2017-12-11T17:16:12.244Z,97.34
2017-12-11T17:17:39.367Z,97.21
2017-12-11T17:19:02.259Z,97.30
2017-12-11T17:20:29.219Z,97.37
2017-12-11T17:22:00.398Z,97.46
2017-12-11T17:23:27.632Z,97.32
2017-12-11T17:24:54.830Z,97.15
2017-12-11T17:26:22.013Z,97.01
2017-12-11T17:27:49.104Z,97.04
2017-12-11T17:29:12.202Z,97.01
2017-12-11T17:30:43.363Z,96.82
2017-12-11T17:32:06.492Z,96.81
2017-12-11T17:33:33.507Z,96.51
2017-12-11T17:35:00.578Z,96.54
2017-12-11T17:36:31.786Z,96.64
2017-12-11T17:37:58.747Z,96.70
2017-12-11T17:39:25.974Z,96.70
2017-12-11T17:40:53.155Z,96.78
2017-12-11T17:42:16.457Z,96.66
2017-12-11T17:43:47.498Z,96.75
2017-12-11T17:45:10.674Z,96.82
2017-12-11T17:46:37.674Z,96.73
2017-12-11T17:48:04.694Z,96.74
2017-12-11T17:49:31.875Z,96.84
2017-12-11T17:51:03.146Z,96.88
2017-12-11T17:52:26.000Z,97.01
2017-12-11T17:53:57.062Z,96.89
2017-12-11T17:55:24.103Z,97.04
2017-12-11T17:56:47.109Z,96.87
2017-12-11T17:58:14.414Z,96.94
2017-12-11T17:59:45.544Z,97.12
2017-12-11T18:01:12.643Z,96.98
2017-12-11T18:02:39.809Z,96.85
2017-12-11T18:04:02.732Z,96.93
2017-12-11T18:05:29.747Z,96.95
2017-12-11T18:07:00.611Z,97.40
2017-12-11T18:08:23.237Z,97.34
2017-12-11T18:09:50.390Z,97.66
2017-12-11T18:11:17.599Z,97.58
2017-12-11T18:12:48.236Z,97.79
2017-12-11T18:14:15.457Z,98.05
2017-12-11T18:15:38.707Z,98.07
2017-12-11T18:17:05.491Z,97.99
2017-12-11T18:18:32.344Z,98.19
2017-12-11T18:20:03.487Z,98.46
2017-12-11T18:21:26.806Z,98.62
2017-12-11T18:22:54.105Z,98.78
2017-12-11T18:24:21.187Z,98.94
2017-12-11T18:25:48.212Z,99.11
2017-12-11T18:27:15.120Z,99.25
2017-12-11T18:28:46.238Z,99.33
2017-12-11T18:30:09.335Z,99.36
2017-12-11T18:31:40.143Z,99.33
2017-12-11T18:33:03.308Z,99.40
2017-12-11T18:34:34.343Z,99.20
2017-12-11T18:36:01.407Z,99.24
2017-12-11T18:37:28.600Z,99.29
2017-12-11T18:38:55.858Z,99.42
2017-12-11T18:40:18.979Z,99.53
2017-12-11T18:41:46.186Z,99.66